createdAt,value
2023-04-18T00:00:13.643Z,422.00
2023-04-18T00:01:13.607Z,421.00
2023-04-18T00:02:13.712Z,421.00
2023-04-18T00:03:13.847Z,421.00
2023-04-18T00:04:14.273Z,422.00
2023-04-18T00:05:13.706Z,422.00
2023-04-18T00:06:13.615Z,419.00
2023-04-18T00:07:13.570Z,418.00
2023-04-18T00:08:13.607Z,420.00
2023-04-18T00:09:13.587Z,421.00
2023-04-18T00:10:13.574Z,422.00
2023-04-18T00:11:13.540Z,422.00
2023-04-18T00:12:13.590Z,421.00
2023-04-18T00:13:13.562Z,421.00
2023-04-18T00:14:13.674Z,423.00
2023-04-18T00:15:13.630Z,424.00
2023-04-18T00:16:13.665Z,426.00
2023-04-18T00:17:13.702Z,426.00
2023-04-18T00:18:13.644Z,426.00
2023-04-18T00:19:13.704Z,426.00
2023-04-18T00:20:13.747Z,426.00
2023-04-18T00:21:13.739Z,425.00
2023-04-18T00:22:13.785Z,426.00
2023-04-18T00:23:13.819Z,426.00
2023-04-18T00:24:14.073Z,425.00
2023-04-18T00:25:13.879Z,424.00
2023-04-18T00:26:13.905Z,422.00
2023-04-18T00:27:13.960Z,424.00
2023-04-18T00:28:14.006Z,425.00
2023-04-18T00:29:14.006Z,427.00
2023-04-18T00:30:14.009Z,426.00
2023-04-18T00:31:14.073Z,427.00
2023-04-18T00:32:14.080Z,427.00
2023-04-18T00:33:14.092Z,429.00
2023-04-18T00:34:14.451Z,430.00
2023-04-18T00:35:14.180Z,433.00
2023-04-18T00:36:14.189Z,433.00
2023-04-18T00:37:14.224Z,431.00
2023-04-18T00:38:14.272Z,433.00
2023-04-18T00:39:14.288Z,433.00
2023-04-18T00:40:14.337Z,432.00
2023-04-18T00:41:14.320Z,431.00
2023-04-18T00:42:14.405Z,430.00
2023-04-18T00:43:14.384Z,433.00
2023-04-18T00:44:14.706Z,436.00
2023-04-18T00:45:14.446Z,434.00
2023-04-18T00:46:14.541Z,433.00
2023-04-18T00:47:14.489Z,431.00
2023-04-18T00:48:14.581Z,431.00
2023-04-18T00:49:14.585Z,429.00
2023-04-18T00:50:14.583Z,429.00
2023-04-18T00:51:14.614Z,429.00
2023-04-18T00:52:14.676Z,428.00
2023-04-18T00:53:14.683Z,430.00
2023-04-18T00:54:14.822Z,430.00
2023-04-18T00:55:14.722Z,431.00
2023-04-18T00:56:14.830Z,431.00
2023-04-18T00:57:14.799Z,430.00
2023-04-18T00:58:14.806Z,430.00
2023-04-18T00:59:14.857Z,430.00
2023-04-18T01:00:14.888Z,432.00
2023-04-18T01:01:14.974Z,433.00
2023-04-18T01:02:15.045Z,431.00
2023-04-18T01:03:15.092Z,428.00
2023-04-18T01:04:15.372Z,429.00
2023-04-18T01:05:15.100Z,427.00
2023-04-18T01:06:15.121Z,427.00
2023-04-18T01:07:15.108Z,426.00
2023-04-18T01:08:15.155Z,426.00
2023-04-18T01:09:15.209Z,424.00
2023-04-18T01:10:15.292Z,425.00
2023-04-18T01:11:15.288Z,426.00
2023-04-18T01:12:15.335Z,424.00
2023-04-18T01:13:15.325Z,424.00
2023-04-18T01:14:15.482Z,423.00
2023-04-18T01:15:15.358Z,424.00
2023-04-18T01:16:15.469Z,425.00
2023-04-18T01:17:15.450Z,423.00
2023-04-18T01:18:15.465Z,421.00
2023-04-18T01:19:15.496Z,423.00
2023-04-18T01:20:15.581Z,424.00
2023-04-18T01:21:15.572Z,426.00
2023-04-18T01:22:15.620Z,425.00
2023-04-18T01:23:15.673Z,424.00
2023-04-18T01:24:16.174Z,423.00
2023-04-18T01:25:15.712Z,423.00
2023-04-18T01:26:15.756Z,425.00
2023-04-18T01:27:15.800Z,426.00
2023-04-18T01:28:15.838Z,424.00
2023-04-18T01:29:15.923Z,425.00
2023-04-18T01:30:15.923Z,424.00
2023-04-18T01:31:15.978Z,424.00
2023-04-18T01:32:15.995Z,424.00
2023-04-18T01:33:15.993Z,425.00
2023-04-18T01:34:16.089Z,426.00
2023-04-18T01:35:16.123Z,425.00
2023-04-18T01:36:16.136Z,426.00
2023-04-18T01:37:16.184Z,427.00
2023-04-18T01:38:16.208Z,427.00
2023-04-18T01:39:16.261Z,427.00
2023-04-18T01:40:16.290Z,426.00
2023-04-18T01:41:16.325Z,425.00
2023-04-18T01:42:16.374Z,424.00
2023-04-18T01:43:16.438Z,425.00
2023-04-18T01:44:16.534Z,425.00
2023-04-18T01:45:16.520Z,424.00
2023-04-18T01:46:16.554Z,421.00
2023-04-18T01:47:16.598Z,420.00
2023-04-18T01:48:16.615Z,417.00
2023-04-18T01:49:16.660Z,417.00
2023-04-18T01:50:16.706Z,419.00
2023-04-18T01:51:16.736Z,418.00
2023-04-18T01:52:16.769Z,418.00
2023-04-18T01:53:16.813Z,419.00
2023-04-18T01:54:16.933Z,419.00
2023-04-18T01:55:16.902Z,418.00
2023-04-18T01:56:17.027Z,418.00
2023-04-18T01:57:16.978Z,419.00
2023-04-18T01:58:17.039Z,420.00
2023-04-18T01:59:17.099Z,421.00
2023-04-18T02:00:17.112Z,420.00
2023-04-18T02:01:17.193Z,421.00
2023-04-18T02:02:17.266Z,423.00
2023-04-18T02:03:17.359Z,422.00
2023-04-18T02:04:17.467Z,423.00
2023-04-18T02:05:17.322Z,425.00
2023-04-18T02:06:17.363Z,424.00
2023-04-18T02:07:17.377Z,422.00
2023-04-18T02:08:17.438Z,421.00
2023-04-18T02:09:17.469Z,420.00
2023-04-18T02:10:17.518Z,422.00
2023-04-18T02:11:17.617Z,421.00
2023-04-18T02:12:17.648Z,420.00
2023-04-18T02:13:17.633Z,420.00
2023-04-18T02:14:17.688Z,419.00
2023-04-18T02:15:17.752Z,419.00
2023-04-18T02:16:17.835Z,417.00
2023-04-18T02:17:17.842Z,418.00
2023-04-18T02:18:17.863Z,416.00
2023-04-18T02:19:17.912Z,416.00
2023-04-18T02:20:18.031Z,416.00
2023-04-18T02:21:17.992Z,416.00
2023-04-18T02:22:18.047Z,414.00
2023-04-18T02:23:18.087Z,417.00
2023-04-18T02:24:18.110Z,417.00
2023-04-18T02:25:18.163Z,416.00
2023-04-18T02:26:18.218Z,416.00
2023-04-18T02:27:18.240Z,415.00
2023-04-18T02:28:18.282Z,416.00
2023-04-18T02:29:18.332Z,419.00
2023-04-18T02:30:18.381Z,419.00
2023-04-18T02:31:18.455Z,418.00
2023-04-18T02:32:18.524Z,418.00
2023-04-18T02:33:18.494Z,417.00
2023-04-18T02:34:18.533Z,417.00
2023-04-18T02:35:18.575Z,417.00
2023-04-18T02:36:18.626Z,416.00
2023-04-18T02:37:18.658Z,416.00
2023-04-18T02:38:18.710Z,416.00
2023-04-18T02:39:18.774Z,414.00
2023-04-18T02:40:18.784Z,413.00
2023-04-18T02:41:18.834Z,414.00
2023-04-18T02:42:18.902Z,415.00
2023-04-18T02:43:18.915Z,416.00
2023-04-18T02:44:19.037Z,419.00
2023-04-18T02:45:18.970Z,417.00
2023-04-18T02:46:19.054Z,417.00
2023-04-18T02:47:19.064Z,418.00
2023-04-18T02:48:19.109Z,419.00
2023-04-18T02:49:19.153Z,419.00
2023-04-18T02:50:19.195Z,417.00
2023-04-18T02:51:19.236Z,416.00
2023-04-18T02:52:19.287Z,415.00
2023-04-18T02:53:19.317Z,417.00
2023-04-18T02:54:19.355Z,419.00
2023-04-18T02:55:19.443Z,418.00
2023-04-18T02:56:19.448Z,419.00
2023-04-18T02:57:19.503Z,418.00
2023-04-18T02:58:19.513Z,419.00
2023-04-18T02:59:19.584Z,419.00
2023-04-18T03:00:19.634Z,421.00
2023-04-18T03:01:19.723Z,424.00
2023-04-18T03:02:19.778Z,423.00
2023-04-18T03:03:19.900Z,422.00
2023-04-18T03:04:19.885Z,421.00
2023-04-18T03:05:19.856Z,422.00
2023-04-18T03:06:19.915Z,420.00
2023-04-18T03:07:19.962Z,420.00
2023-04-18T03:08:20.036Z,419.00
2023-04-18T03:09:20.066Z,418.00
2023-04-18T03:10:20.123Z,420.00
2023-04-18T03:11:20.201Z,417.00
2023-04-18T03:12:20.198Z,417.00
2023-04-18T03:13:20.262Z,413.00
2023-04-18T03:14:20.335Z,413.00
2023-04-18T03:15:20.359Z,412.00
2023-04-18T03:16:20.475Z,410.00
2023-04-18T03:17:20.566Z,408.00
2023-04-18T03:18:20.514Z,410.00
2023-04-18T03:19:20.532Z,409.00
2023-04-18T03:20:20.590Z,409.00
2023-04-18T03:21:20.622Z,409.00
2023-04-18T03:22:20.636Z,409.00
2023-04-18T03:23:20.708Z,410.00
2023-04-18T03:24:20.745Z,408.00
2023-04-18T03:25:20.800Z,408.00
2023-04-18T03:26:20.842Z,409.00
2023-04-18T03:27:20.882Z,410.00
2023-04-18T03:28:20.950Z,412.00
2023-04-18T03:29:20.950Z,410.00
2023-04-18T03:30:21.043Z,413.00
2023-04-18T03:31:21.097Z,411.00
2023-04-18T03:32:21.182Z,409.00
2023-04-18T03:33:21.137Z,409.00
2023-04-18T03:34:21.185Z,411.00
2023-04-18T03:35:21.241Z,410.00
2023-04-18T03:36:21.291Z,410.00
2023-04-18T03:37:21.336Z,411.00
2023-04-18T03:38:21.374Z,410.00
2023-04-18T03:39:21.386Z,410.00
2023-04-18T03:40:21.439Z,410.00
2023-04-18T03:41:21.480Z,410.00
2023-04-18T03:42:21.583Z,410.00
2023-04-18T03:43:21.576Z,409.00
2023-04-18T03:44:21.625Z,407.00
2023-04-18T03:45:21.688Z,407.00
2023-04-18T03:46:21.765Z,408.00
2023-04-18T03:47:21.775Z,409.00
2023-04-18T03:48:21.809Z,410.00
2023-04-18T03:49:21.846Z,409.00
2023-04-18T03:50:21.906Z,408.00
2023-04-18T03:51:21.998Z,409.00
2023-04-18T03:52:22.009Z,411.00
2023-04-18T03:53:22.037Z,413.00
2023-04-18T03:54:22.080Z,412.00
2023-04-18T03:55:22.134Z,415.00
2023-04-18T03:56:22.174Z,413.00
2023-04-18T03:57:22.193Z,411.00
2023-04-18T03:58:23.226Z,411.00
2023-04-18T03:59:22.313Z,411.00
2023-04-18T04:00:22.364Z,412.00
2023-04-18T04:01:22.429Z,414.00
2023-04-18T04:02:22.543Z,415.00
2023-04-18T04:03:22.737Z,416.00
2023-04-18T04:04:22.732Z,415.00
2023-04-18T04:05:22.607Z,416.00
2023-04-18T04:06:22.749Z,415.00
2023-04-18T04:07:22.719Z,413.00
2023-04-18T04:08:22.757Z,413.00
2023-04-18T04:09:22.835Z,411.00
2023-04-18T04:10:22.921Z,410.00
2023-04-18T04:11:22.952Z,410.00
2023-04-18T04:12:22.988Z,412.00
2023-04-18T04:13:23.047Z,414.00
2023-04-18T04:14:23.041Z,416.00
2023-04-18T04:15:23.057Z,417.00
2023-04-18T04:16:23.098Z,418.00
2023-04-18T04:17:23.046Z,418.00
2023-04-18T04:18:23.058Z,420.00
2023-04-18T04:19:23.034Z,423.00
2023-04-18T04:20:23.056Z,424.00
2023-04-18T04:21:23.044Z,425.00
2023-04-18T04:22:23.021Z,426.00
2023-04-18T04:23:23.034Z,427.00
2023-04-18T04:24:23.005Z,427.00
2023-04-18T04:25:23.024Z,428.00
2023-04-18T04:26:23.032Z,430.00
2023-04-18T04:27:23.036Z,432.00
2023-04-18T04:28:23.044Z,432.00
2023-04-18T04:29:23.034Z,430.00
2023-04-18T04:30:23.004Z,428.00
2023-04-18T04:31:23.064Z,429.00
2023-04-18T04:32:23.104Z,432.00
2023-04-18T04:33:23.023Z,431.00
2023-04-18T04:34:23.029Z,429.00
2023-04-18T04:35:23.079Z,428.00
2023-04-18T04:36:23.174Z,428.00
2023-04-18T04:37:23.200Z,427.00
2023-04-18T04:38:23.273Z,427.00
2023-04-18T04:39:23.324Z,428.00
2023-04-18T04:40:23.389Z,428.00
2023-04-18T04:41:23.410Z,428.00
2023-04-18T04:42:23.492Z,428.00
2023-04-18T04:43:23.540Z,426.00
2023-04-18T04:44:23.628Z,424.00
2023-04-18T04:45:23.680Z,424.00
2023-04-18T04:46:23.753Z,423.00
2023-04-18T04:47:23.788Z,424.00
2023-04-18T04:48:23.856Z,422.00
2023-04-18T04:49:23.878Z,424.00
2023-04-18T04:50:23.959Z,424.00
2023-04-18T04:51:24.072Z,424.00
2023-04-18T04:52:24.074Z,422.00
2023-04-18T04:53:24.211Z,422.00
2023-04-18T04:54:24.232Z,424.00
2023-04-18T04:55:24.348Z,427.00
2023-04-18T04:56:24.350Z,428.00
2023-04-18T04:57:24.345Z,429.00
2023-04-18T04:58:24.458Z,429.00
2023-04-18T04:59:24.503Z,427.00
2023-04-18T05:00:24.640Z,428.00
2023-04-18T05:01:24.662Z,429.00
2023-04-18T05:02:24.824Z,430.00
2023-04-18T05:03:24.846Z,430.00
2023-04-18T05:04:24.920Z,429.00
2023-04-18T05:05:24.804Z,427.00
2023-04-18T05:06:24.903Z,428.00
2023-04-18T05:07:24.921Z,428.00
2023-04-18T05:08:24.972Z,428.00
2023-04-18T05:09:25.056Z,428.00
2023-04-18T05:10:25.085Z,428.00
2023-04-18T05:11:25.180Z,427.00
2023-04-18T05:12:25.226Z,425.00
2023-04-18T05:13:25.272Z,424.00
2023-04-18T05:14:25.298Z,424.00
2023-04-18T05:15:25.353Z,424.00
2023-04-18T05:16:25.456Z,426.00
2023-04-18T05:17:25.484Z,426.00
2023-04-18T05:18:25.605Z,425.00
2023-04-18T05:19:25.610Z,425.00
2023-04-18T05:20:25.670Z,424.00
2023-04-18T05:21:25.707Z,425.00
2023-04-18T05:22:25.748Z,429.00
2023-04-18T05:23:25.864Z,431.00
2023-04-18T05:24:25.894Z,428.00
2023-04-18T05:25:25.954Z,427.00
2023-04-18T05:26:26.020Z,427.00
2023-04-18T05:27:26.062Z,426.00
2023-04-18T05:28:26.149Z,427.00
2023-04-18T05:29:26.204Z,428.00
2023-04-18T05:30:26.248Z,429.00
2023-04-18T05:31:26.313Z,430.00
2023-04-18T05:32:26.381Z,429.00
2023-04-18T05:33:26.423Z,430.00
2023-04-18T05:34:26.494Z,433.00
2023-04-18T05:35:26.554Z,437.00
2023-04-18T05:36:26.597Z,438.00
2023-04-18T05:37:26.702Z,437.00
2023-04-18T05:38:26.713Z,437.00
2023-04-18T05:39:26.797Z,440.00
2023-04-18T05:40:26.800Z,449.00
2023-04-18T05:41:26.860Z,460.00
2023-04-18T05:42:26.906Z,479.00
2023-04-18T05:43:26.975Z,541.00
2023-04-18T05:44:27.032Z,549.00
2023-04-18T05:45:27.066Z,556.00
2023-04-18T05:46:27.157Z,570.00
2023-04-18T05:47:27.216Z,581.00
2023-04-18T05:48:27.226Z,602.00
2023-04-18T05:49:27.251Z,619.00
2023-04-18T05:50:27.343Z,630.00
2023-04-18T05:51:27.592Z,635.00
2023-04-18T05:52:27.356Z,647.00
2023-04-18T05:53:27.405Z,657.00
2023-04-18T05:54:27.451Z,663.00
2023-04-18T05:55:27.441Z,664.00
2023-04-18T05:56:27.437Z,661.00
2023-04-18T05:57:27.593Z,660.00
2023-04-18T05:58:27.532Z,657.00
2023-04-18T05:59:27.600Z,676.00
2023-04-18T06:00:27.546Z,685.00
2023-04-18T06:01:27.617Z,666.00
2023-04-18T06:02:27.770Z,658.00
2023-04-18T06:03:27.803Z,648.00
2023-04-18T06:04:27.807Z,641.00
2023-04-18T06:05:28.081Z,634.00
2023-04-18T06:06:27.711Z,631.00
2023-04-18T06:07:27.699Z,628.00
2023-04-18T06:08:27.690Z,625.00
2023-04-18T06:09:27.712Z,622.00
2023-04-18T06:10:27.772Z,623.00
2023-04-18T06:11:27.752Z,625.00
2023-04-18T06:12:27.888Z,626.00
2023-04-18T06:13:27.802Z,625.00
2023-04-18T06:14:27.794Z,623.00
2023-04-18T06:15:28.057Z,621.00
2023-04-18T06:16:27.880Z,619.00
2023-04-18T06:17:27.816Z,615.00
2023-04-18T06:18:27.770Z,614.00
2023-04-18T06:19:27.826Z,613.00
2023-04-18T06:20:27.820Z,610.00
2023-04-18T06:21:27.814Z,605.00
2023-04-18T06:22:27.798Z,602.00
2023-04-18T06:23:27.791Z,599.00
2023-04-18T06:24:28.326Z,598.00
2023-04-18T06:25:27.816Z,593.00
2023-04-18T06:26:27.812Z,590.00
2023-04-18T06:27:31.554Z,587.00
2023-04-18T06:28:28.297Z,584.00
2023-04-18T06:29:27.761Z,583.00
2023-04-18T06:30:27.783Z,581.00
2023-04-18T06:31:28.159Z,578.00
2023-04-18T06:32:28.165Z,575.00
2023-04-18T06:33:28.126Z,574.00
2023-04-18T06:34:27.721Z,573.00
2023-04-18T06:35:28.148Z,574.00
2023-04-18T06:36:27.749Z,571.00
2023-04-18T06:37:27.708Z,570.00
2023-04-18T06:38:27.707Z,571.00
2023-04-18T06:39:27.752Z,569.00
2023-04-18T06:40:27.720Z,567.00
2023-04-18T06:41:27.716Z,563.00
2023-04-18T06:42:27.695Z,557.00
2023-04-18T06:43:27.732Z,556.00
2023-04-18T06:44:27.718Z,552.00
2023-04-18T06:45:27.761Z,546.00
2023-04-18T06:46:27.772Z,540.00
2023-04-18T06:47:27.682Z,535.00
2023-04-18T06:48:28.132Z,530.00
2023-04-18T06:49:27.668Z,527.00
2023-04-18T06:50:27.649Z,523.00
2023-04-18T06:51:27.715Z,519.00
2023-04-18T06:52:27.637Z,515.00
2023-04-18T06:53:27.650Z,510.00
2023-04-18T06:54:27.654Z,504.00
2023-04-18T06:55:27.607Z,502.00
2023-04-18T06:56:27.609Z,500.00
2023-04-18T06:57:29.041Z,499.00
2023-04-18T06:58:27.629Z,495.00
2023-04-18T06:59:27.588Z,496.00
2023-04-18T07:00:27.599Z,493.00
2023-04-18T07:01:27.609Z,491.00
2023-04-18T07:02:27.604Z,489.00
2023-04-18T07:03:27.661Z,487.00
2023-04-18T07:04:27.670Z,485.00
2023-04-18T07:05:27.677Z,485.00
2023-04-18T07:06:27.680Z,487.00
2023-04-18T07:07:27.750Z,485.00
2023-04-18T07:08:27.798Z,482.00
2023-04-18T07:09:27.859Z,480.00
2023-04-18T07:10:27.914Z,479.00
2023-04-18T07:11:27.918Z,478.00
2023-04-18T07:12:28.136Z,480.00
2023-04-18T07:13:27.998Z,478.00
2023-04-18T07:14:28.039Z,476.00
2023-04-18T07:15:28.108Z,478.00
2023-04-18T07:16:28.315Z,477.00
2023-04-18T07:17:28.172Z,476.00
2023-04-18T07:18:37.635Z,478.00
2023-04-18T07:19:29.150Z,482.00
2023-04-18T07:20:28.141Z,483.00
2023-04-18T07:21:28.146Z,487.00
2023-04-18T07:22:28.144Z,487.00
2023-04-18T07:23:28.099Z,487.00
2023-04-18T07:24:28.105Z,488.00
2023-04-18T07:25:28.107Z,488.00
2023-04-18T07:26:28.075Z,488.00
2023-04-18T07:27:28.077Z,489.00
2023-04-18T07:28:28.094Z,487.00
2023-04-18T07:29:28.093Z,485.00
2023-04-18T07:30:28.066Z,485.00
2023-04-18T07:31:28.087Z,485.00
2023-04-18T07:32:28.151Z,489.00
2023-04-18T07:33:28.089Z,504.00
2023-04-18T07:34:28.040Z,574.00
2023-04-18T07:35:28.026Z,567.00
2023-04-18T07:36:28.139Z,594.00
2023-04-18T07:37:28.020Z,640.00
2023-04-18T07:38:27.990Z,687.00
2023-04-18T07:39:28.008Z,688.00
2023-04-18T07:40:28.039Z,699.00
2023-04-18T07:41:28.165Z,716.00
2023-04-18T07:42:28.026Z,725.00
2023-04-18T07:43:28.106Z,766.00
2023-04-18T07:44:28.152Z,750.00
2023-04-18T07:45:28.227Z,832.00
2023-04-18T07:46:28.244Z,781.00
2023-04-18T07:47:30.316Z,773.00
2023-04-18T07:48:28.755Z,777.00
2023-04-18T07:49:28.722Z,787.00
2023-04-18T07:50:28.554Z,784.00
2023-04-18T07:51:28.519Z,786.00
2023-04-18T07:52:28.612Z,790.00
2023-04-18T07:53:28.616Z,794.00
2023-04-18T07:54:28.621Z,812.00
2023-04-18T07:55:28.735Z,824.00
2023-04-18T07:56:28.632Z,808.00
2023-04-18T07:57:28.645Z,801.00
2023-04-18T07:58:28.628Z,806.00
2023-04-18T07:59:28.611Z,806.00
2023-04-18T08:00:28.664Z,810.00
2023-04-18T08:01:28.630Z,823.00
2023-04-18T08:02:28.859Z,831.00
2023-04-18T08:03:28.837Z,850.00
2023-04-18T08:04:30.359Z,846.00
2023-04-18T08:05:28.703Z,838.00
2023-04-18T08:06:28.658Z,843.00
2023-04-18T08:07:28.660Z,836.00
2023-04-18T08:08:28.640Z,843.00
2023-04-18T08:09:28.673Z,850.00
2023-04-18T08:10:28.618Z,847.00
2023-04-18T08:11:28.643Z,843.00
2023-04-18T08:12:28.672Z,838.00
2023-04-18T08:13:28.700Z,836.00
2023-04-18T08:14:28.778Z,837.00
2023-04-18T08:15:28.822Z,836.00
2023-04-18T08:16:28.897Z,838.00
2023-04-18T08:17:28.944Z,836.00
2023-04-18T08:18:29.005Z,837.00
2023-04-18T08:19:29.206Z,839.00
2023-04-18T08:20:29.088Z,841.00
2023-04-18T08:21:29.112Z,840.00
2023-04-18T08:22:29.197Z,844.00
2023-04-18T08:23:29.185Z,853.00
2023-04-18T08:24:29.284Z,858.00
2023-04-18T08:25:29.359Z,859.00
2023-04-18T08:26:29.350Z,851.00
2023-04-18T08:27:29.454Z,831.00
2023-04-18T08:28:29.474Z,802.00
2023-04-18T08:29:29.574Z,782.00
2023-04-18T08:30:29.636Z,764.00
2023-04-18T08:31:29.692Z,731.00
2023-04-18T08:32:29.723Z,712.00
2023-04-18T08:33:29.711Z,706.00
2023-04-18T08:34:29.705Z,682.00
2023-04-18T08:35:29.726Z,655.00
2023-04-18T08:36:29.718Z,641.00
2023-04-18T08:37:29.683Z,630.00
2023-04-18T08:38:29.741Z,621.00
2023-04-18T08:39:29.684Z,610.00
2023-04-18T08:40:29.750Z,600.00
2023-04-18T08:41:29.742Z,592.00
2023-04-18T08:42:29.723Z,586.00
2023-04-18T08:43:29.741Z,580.00
2023-04-18T08:44:29.757Z,673.00
2023-04-18T08:45:29.752Z,648.00
2023-04-18T08:46:29.793Z,651.00
2023-04-18T08:47:29.816Z,654.00
2023-04-18T08:48:29.709Z,651.00
2023-04-18T08:49:29.722Z,648.00
2023-04-18T08:50:29.730Z,645.00
2023-04-18T08:51:29.691Z,645.00
2023-04-18T08:52:29.706Z,643.00
2023-04-18T08:53:29.738Z,635.00
2023-04-18T08:54:29.729Z,631.00
2023-04-18T08:55:29.712Z,631.00
2023-04-18T08:56:29.696Z,631.00
2023-04-18T08:57:29.714Z,630.00
2023-04-18T08:58:29.719Z,627.00
2023-04-18T08:59:29.668Z,625.00
2023-04-18T09:00:29.742Z,621.00
2023-04-18T09:01:29.808Z,617.00
2023-04-18T09:02:29.859Z,614.00
2023-04-18T09:03:29.837Z,612.00
2023-04-18T09:04:29.980Z,611.00
2023-04-18T09:05:29.818Z,610.00
2023-04-18T09:06:29.869Z,608.00
2023-04-18T09:07:29.864Z,608.00
2023-04-18T09:08:29.789Z,606.00
2023-04-18T09:09:30.201Z,602.00
2023-04-18T09:10:29.805Z,600.00
2023-04-18T09:11:29.859Z,599.00
2023-04-18T09:12:29.802Z,598.00
2023-04-18T09:13:29.848Z,602.00
2023-04-18T09:14:30.229Z,603.00
2023-04-18T09:15:30.023Z,606.00
2023-04-18T09:16:30.054Z,606.00
2023-04-18T09:17:30.136Z,606.00
2023-04-18T09:18:30.126Z,610.00
2023-04-18T09:19:30.222Z,610.00
2023-04-18T09:20:30.272Z,611.00
2023-04-18T09:21:30.350Z,611.00
2023-04-18T09:22:30.449Z,613.00
2023-04-18T09:23:30.457Z,612.00
2023-04-18T09:24:30.495Z,614.00
2023-04-18T09:25:30.512Z,615.00
2023-04-18T09:26:30.557Z,618.00
2023-04-18T09:27:30.586Z,619.00
2023-04-18T09:28:30.644Z,619.00
2023-04-18T09:29:30.705Z,618.00
2023-04-18T09:30:30.857Z,620.00
2023-04-18T09:31:30.858Z,622.00
2023-04-18T09:32:30.855Z,628.00
2023-04-18T09:33:30.875Z,666.00
2023-04-18T09:34:30.936Z,678.00
2023-04-18T09:35:31.006Z,686.00
2023-04-18T09:36:31.330Z,690.00
2023-04-18T09:37:31.107Z,694.00
2023-04-18T09:38:31.169Z,706.00
2023-04-18T09:39:31.234Z,778.00
2023-04-18T09:40:31.334Z,782.00
2023-04-18T09:41:31.703Z,752.00
2023-04-18T09:42:31.520Z,755.00
2023-04-18T09:43:31.466Z,755.00
2023-04-18T09:44:31.509Z,752.00
2023-04-18T09:45:31.640Z,757.00
2023-04-18T09:46:31.736Z,754.00
2023-04-18T09:47:32.262Z,747.00
2023-04-18T09:48:31.783Z,742.00
2023-04-18T09:49:31.827Z,733.00
2023-04-18T09:50:31.865Z,728.00
2023-04-18T09:51:32.006Z,727.00
2023-04-18T09:52:32.035Z,722.00
2023-04-18T09:53:32.095Z,718.00
2023-04-18T09:54:32.157Z,716.00
2023-04-18T09:55:32.236Z,715.00
2023-04-18T09:56:32.432Z,708.00
2023-04-18T09:57:32.296Z,708.00
2023-04-18T09:58:32.382Z,706.00
2023-04-18T09:59:32.404Z,700.00
2023-04-18T10:00:32.489Z,699.00
2023-04-18T10:01:32.565Z,697.00
2023-04-18T10:02:32.703Z,693.00
2023-04-18T10:03:32.777Z,691.00
2023-04-18T10:04:32.754Z,686.00
2023-04-18T10:05:32.756Z,684.00
2023-04-18T10:06:32.838Z,685.00
2023-04-18T10:07:32.896Z,680.00
2023-04-18T10:08:32.942Z,676.00
2023-04-18T10:09:33.013Z,675.00
2023-04-18T10:10:33.077Z,673.00
2023-04-18T10:11:33.137Z,672.00
2023-04-18T10:12:33.255Z,673.00
2023-04-18T10:13:33.266Z,676.00
2023-04-18T10:14:33.305Z,676.00
2023-04-18T10:15:33.756Z,680.00
2023-04-18T10:16:34.967Z,681.00
2023-04-18T10:17:33.405Z,676.00
2023-04-18T10:18:33.411Z,675.00
2023-04-18T10:19:33.403Z,673.00
2023-04-18T10:20:33.463Z,673.00
2023-04-18T10:21:33.410Z,668.00
2023-04-18T10:22:33.715Z,667.00
2023-04-18T10:23:33.357Z,668.00
2023-04-18T10:24:33.336Z,668.00
2023-04-18T10:25:33.357Z,667.00
2023-04-18T10:26:33.353Z,654.00
2023-04-18T10:27:33.321Z,640.00
2023-04-18T10:28:33.370Z,639.00
2023-04-18T10:29:33.299Z,636.00
2023-04-18T10:30:33.312Z,632.00
2023-04-18T10:31:33.355Z,628.00
2023-04-18T10:32:33.736Z,635.00
2023-04-18T10:33:34.114Z,637.00
2023-04-18T10:34:33.271Z,649.00
2023-04-18T10:35:33.435Z,661.00
2023-04-18T10:36:33.267Z,664.00
2023-04-18T10:37:33.253Z,666.00
2023-04-18T10:38:33.258Z,667.00
2023-04-18T10:39:33.274Z,673.00
2023-04-18T10:40:33.250Z,677.00
2023-04-18T10:41:33.227Z,679.00
2023-04-18T10:42:33.739Z,681.00
2023-04-18T10:43:33.234Z,691.00
2023-04-18T10:44:33.220Z,717.00
2023-04-18T10:45:33.202Z,699.00
2023-04-18T10:46:33.208Z,704.00
2023-04-18T10:47:33.496Z,699.00
2023-04-18T10:48:33.182Z,698.00
2023-04-18T10:49:33.207Z,698.00
2023-04-18T10:50:33.190Z,699.00
2023-04-18T10:51:33.137Z,699.00
2023-04-18T10:52:33.146Z,706.00
2023-04-18T10:53:33.255Z,708.00
2023-04-18T10:54:33.162Z,707.00
2023-04-18T10:55:33.139Z,710.00
2023-04-18T10:56:33.197Z,710.00
2023-04-18T10:57:33.109Z,710.00
2023-04-18T10:58:33.118Z,715.00
2023-04-18T10:59:33.086Z,718.00
2023-04-18T11:00:33.115Z,723.00
2023-04-18T11:01:33.361Z,729.00
2023-04-18T11:02:33.199Z,731.00
2023-04-18T11:03:33.136Z,731.00
2023-04-18T11:04:33.155Z,730.00
2023-04-18T11:05:33.138Z,729.00
2023-04-18T11:06:33.190Z,730.00
2023-04-18T11:07:33.185Z,734.00
2023-04-18T11:08:33.272Z,739.00
2023-04-18T11:09:33.255Z,743.00
2023-04-18T11:10:33.294Z,742.00
2023-04-18T11:11:33.339Z,742.00
2023-04-18T11:12:33.373Z,746.00
2023-04-18T11:13:33.366Z,751.00
2023-04-18T11:14:33.401Z,751.00
2023-04-18T11:15:33.411Z,752.00
2023-04-18T11:16:33.458Z,751.00
2023-04-18T11:17:33.463Z,754.00
2023-04-18T11:18:33.485Z,754.00
2023-04-18T11:19:33.736Z,796.00
2023-04-18T11:20:33.492Z,786.00
2023-04-18T11:21:33.558Z,789.00
2023-04-18T11:22:33.612Z,772.00
2023-04-18T11:23:33.629Z,742.00
2023-04-18T11:24:33.780Z,730.00
2023-04-18T11:25:33.697Z,721.00
2023-04-18T11:26:34.297Z,707.00
2023-04-18T11:27:33.792Z,688.00
2023-04-18T11:28:33.838Z,671.00
2023-04-18T11:29:33.933Z,652.00
2023-04-18T11:30:33.968Z,644.00
2023-04-18T11:31:34.032Z,635.00
2023-04-18T11:32:34.376Z,628.00
2023-04-18T11:33:34.112Z,622.00
2023-04-18T11:34:34.155Z,614.00
2023-04-18T11:35:34.239Z,608.00
2023-04-18T11:36:34.221Z,601.00
2023-04-18T11:37:34.240Z,595.00
2023-04-18T11:38:34.252Z,585.00
2023-04-18T11:39:34.241Z,571.00
2023-04-18T11:40:34.251Z,565.00
2023-04-18T11:41:34.295Z,559.00
2023-04-18T11:42:34.317Z,555.00
2023-04-18T11:43:34.306Z,547.00
2023-04-18T11:44:36.091Z,541.00
2023-04-18T11:45:34.303Z,535.00
2023-04-18T11:46:34.438Z,533.00
2023-04-18T11:47:34.373Z,528.00
2023-04-18T11:48:34.315Z,524.00
2023-04-18T11:49:34.358Z,520.00
2023-04-18T11:50:34.331Z,512.00
2023-04-18T11:51:34.337Z,505.00
2023-04-18T11:52:34.394Z,499.00
2023-04-18T11:53:34.357Z,496.00
2023-04-18T11:54:34.339Z,495.00
2023-04-18T11:55:34.352Z,491.00
2023-04-18T11:56:36.646Z,486.00
2023-04-18T11:57:34.469Z,482.00
2023-04-18T11:58:34.448Z,480.00
2023-04-18T11:59:34.454Z,478.00
2023-04-18T12:00:34.457Z,477.00
2023-04-18T12:01:34.502Z,476.00
2023-04-18T12:02:34.563Z,476.00
2023-04-18T12:03:34.663Z,478.00
2023-04-18T12:04:34.704Z,478.00
2023-04-18T12:05:34.757Z,477.00
2023-04-18T12:06:34.457Z,478.00
2023-04-18T12:07:34.499Z,481.00
2023-04-18T12:08:34.503Z,479.00
2023-04-18T12:09:34.495Z,479.00
2023-04-18T12:10:34.513Z,481.00
2023-04-18T12:11:34.548Z,480.00
2023-04-18T12:12:34.574Z,480.00
2023-04-18T12:13:34.588Z,477.00
2023-04-18T12:14:34.588Z,476.00
2023-04-18T12:15:34.652Z,475.00
2023-04-18T12:16:34.714Z,476.00
2023-04-18T12:17:34.688Z,477.00
2023-04-18T12:18:34.765Z,475.00
2023-04-18T12:19:34.803Z,476.00
2023-04-18T12:20:34.931Z,476.00
2023-04-18T12:21:34.870Z,477.00
2023-04-18T12:22:34.875Z,479.00
2023-04-18T12:23:34.927Z,475.00
2023-04-18T12:24:34.955Z,476.00
2023-04-18T12:25:35.065Z,479.00
2023-04-18T12:26:35.067Z,479.00
2023-04-18T12:27:35.152Z,478.00
2023-04-18T12:28:35.277Z,480.00